map of UPG home
UPG - Airport
Location
City:  Makassar, Sulawesi Selatan, Indonesia
Near (Alt.):Ujung Pandang
Name:Sultan Hasanuddin International Airport
ICAO:WAAA
IATA:UPG

Details
Type:Airport (Aerodrome, Airfield)
Use:Public/Civil, Military, International (customs port of entry)
Latitude:5°03'42"S (-5.061630)
Longitude:119°33'15"E (119.554042)
Datum:WGS 1984
Elevation:47 ft (14 m)
Variation:0.82°E (WMM2015v2 magnetic declination)
-0.07° annual change
Runways:1
Longest:8202 × 148 ft (2500 × 45 m), paved

Time
Time Zone:UTC+8
Local Time:

Weather
METAR:WAAA 041400Z 11003KT 8000 SCT019 26/26 Q1012 NOSIG
TAF:WAAA 040500Z 0406/0512 32008KT 9000 SCT019
TEMPO 0407/0411 6000 RA FEW017CB
BECMG 0411/0413 09004KT 8000
TEMPO 0416/0420 5000 -RA FEW017CB
BECMG 0501/0503 32010KT 9999

Related Locations
Nearby:
Farthest:SDZO: 12450 mi / 20037 km
Uiramutã [Waromada], RR, BR

Find:

   beyond  
but within

Other Information
Maps:
NOTAMs:
Links:
Sources:

  
  • flag of Indonesia
  • flag of Sulawesi Selatan
  

Sectional Chart

Flight Planning
at skyvector.com

Satellite Image

Google Maps Satellite view

 

Copyright © 2004-2019 Karl L. Swartz. All rights reserved.
The Great Circle Mapper name and logo are trademarks of the Great Circle Mapper.
All other trademarks mentioned herein belong to their respective owners.
Please see credits for attibutions and further copyright information.

  Follow gcmap on Facebook Follow gcmap on Twitter GCmap on LinkedIn

hCard Microformat

Geo Microformat